createdAt,value
2019-05-18T00:03:32.512Z,48.57
2019-05-18T00:08:35.232Z,42.93
2019-05-18T00:13:37.926Z,47.83
2019-05-18T00:18:40.642Z,46.90
2019-05-18T00:23:43.362Z,47.10
2019-05-18T00:28:46.477Z,48.27
2019-05-18T00:33:49.183Z,44.10
2019-05-18T00:38:51.895Z,47.17
2019-05-18T00:43:54.606Z,49.60
2019-05-18T00:48:57.315Z,49.20
2019-05-18T00:54:01.479Z,52.30
2019-05-18T00:59:04.242Z,53.50
2019-05-18T01:04:06.939Z,50.23
2019-05-18T01:09:16.618Z,46.47
2019-05-18T01:14:19.317Z,47.40
2019-05-18T01:19:22.125Z,45.60
2019-05-18T01:24:24.849Z,45.10
2019-05-18T01:29:27.562Z,53.83
2019-05-18T01:34:30.281Z,49.03
2019-05-18T01:39:33.001Z,54.80
2019-05-18T01:44:36.029Z,53.40
2019-05-18T01:49:38.795Z,55.73
2019-05-18T01:54:41.746Z,48.27
2019-05-18T01:59:44.464Z,45.23
2019-05-18T02:04:47.183Z,45.87
2019-05-18T02:09:49.895Z,43.57
2019-05-18T02:14:52.605Z,42.00
2019-05-18T02:19:55.343Z,49.90
2019-05-18T02:24:58.070Z,47.27
2019-05-18T02:30:00.783Z,49.60
2019-05-18T02:35:03.955Z,46.87
2019-05-18T02:40:07.857Z,41.33
2019-05-18T02:45:12.068Z,36.27
2019-05-18T02:50:14.976Z,47.17
2019-05-18T02:55:17.663Z,40.67
2019-05-18T03:00:20.384Z,47.30
2019-05-18T03:05:23.164Z,48.10
2019-05-18T03:10:25.876Z,46.10
2019-05-18T03:15:28.580Z,52.83
2019-05-18T03:20:31.295Z,47.37
2019-05-18T03:25:34.103Z,42.07
2019-05-18T03:30:36.880Z,46.70
2019-05-18T03:41:23.197Z,46.47
2019-05-18T03:46:25.925Z,47.03
2019-05-18T03:51:28.615Z,54.57
2019-05-18T03:56:31.316Z,46.80
2019-05-18T04:01:34.130Z,47.17
2019-05-18T04:06:36.829Z,51.50
2019-05-18T04:11:39.516Z,45.87
2019-05-18T04:16:42.228Z,53.27
2019-05-18T04:21:44.990Z,48.60
2019-05-18T04:26:47.739Z,41.70
2019-05-18T04:31:50.436Z,46.57
2019-05-18T04:36:53.189Z,55.97
2019-05-18T04:41:55.881Z,52.87
2019-05-18T04:46:58.613Z,57.67
2019-05-18T04:52:01.369Z,57.80
2019-05-18T04:57:04.595Z,54.07
2019-05-18T05:02:07.312Z,56.17
2019-05-18T05:07:10.013Z,56.30
2019-05-18T05:12:12.845Z,44.83
2019-05-18T05:17:15.586Z,47.47
2019-05-18T05:22:18.296Z,47.07
2019-05-18T05:27:21.010Z,52.40
2019-05-18T05:32:24.872Z,52.00
2019-05-18T05:37:28.078Z,57.57
2019-05-18T05:42:32.490Z,49.23
2019-05-18T05:47:35.340Z,50.10
2019-05-18T05:52:38.064Z,58.43
2019-05-18T05:57:40.772Z,63.90
2019-05-18T06:02:43.491Z,52.23
2019-05-18T06:07:46.267Z,56.20
2019-05-18T06:12:49.753Z,55.33
2019-05-18T06:17:52.464Z,58.90
2019-05-18T06:22:55.157Z,54.10
2019-05-18T06:27:57.860Z,44.63
2019-05-18T06:33:00.609Z,55.13
2019-05-18T06:38:03.549Z,61.67
2019-05-18T06:43:06.246Z,46.20
2019-05-18T06:48:08.956Z,39.97
2019-05-18T06:53:11.730Z,43.17
2019-05-18T06:58:15.035Z,38.07
2019-05-18T07:03:17.767Z,36.43
2019-05-18T07:08:20.485Z,29.17
2019-05-18T07:13:23.247Z,30.10
2019-05-18T07:18:26.163Z,28.37
2019-05-18T07:23:28.890Z,27.10
2019-05-18T07:28:34.834Z,19.40
2019-05-18T07:33:37.966Z,23.07
2019-05-18T07:38:47.733Z,20.47
2019-05-18T07:43:56.642Z,23.13
2019-05-18T07:49:11.820Z,18.27
2019-05-18T07:54:23.009Z,17.17
2019-05-18T07:59:32.144Z,14.37
2019-05-18T08:04:41.247Z,18.20
2019-05-18T08:09:47.175Z,12.60
2019-05-18T08:14:50.167Z,17.40
2019-05-18T08:19:52.868Z,16.80
2019-05-18T08:24:55.600Z,17.33
2019-05-18T08:30:00.869Z,20.80
2019-05-18T08:35:03.964Z,19.40
2019-05-18T08:40:07.225Z,16.70
2019-05-18T08:45:10.608Z,15.27
2019-05-18T08:50:13.350Z,11.73
2019-05-18T08:55:16.144Z,13.60
2019-05-18T09:00:19.176Z,9.97
2019-05-18T09:05:21.889Z,9.00
2019-05-18T09:10:24.627Z,10.87
2019-05-18T09:15:27.329Z,9.70
2019-05-18T09:20:30.041Z,8.97
2019-05-18T09:25:32.860Z,8.90
2019-05-18T09:30:35.570Z,9.67
2019-05-18T09:35:38.280Z,9.00
2019-05-18T09:40:40.974Z,7.40
2019-05-18T09:45:43.721Z,8.30
2019-05-18T09:50:46.470Z,8.90
2019-05-18T09:55:49.168Z,10.87
2019-05-18T10:00:51.877Z,4.90
2019-05-18T10:05:54.574Z,8.13
2019-05-18T10:10:57.305Z,6.57
2019-05-18T10:16:00.114Z,4.37
2019-05-18T10:21:02.833Z,4.43
2019-05-18T10:26:05.585Z,6.90
2019-05-18T10:31:08.641Z,6.23
2019-05-18T10:36:11.877Z,6.23
2019-05-18T10:41:14.762Z,5.57
2019-05-18T10:46:17.584Z,4.83
2019-05-18T10:51:20.320Z,5.23
2019-05-18T10:56:23.037Z,6.00
2019-05-18T11:01:25.742Z,12.00
2019-05-18T11:06:28.545Z,4.80
2019-05-18T11:11:31.283Z,6.13
2019-05-18T11:16:34.283Z,6.07
2019-05-18T11:21:37.122Z,5.80
2019-05-18T11:26:40.467Z,6.73
2019-05-18T11:31:44.170Z,5.50
2019-05-18T11:36:47.791Z,4.57
2019-05-18T11:41:50.746Z,4.40
2019-05-18T11:46:54.144Z,4.53
2019-05-18T11:51:57.463Z,3.70
2019-05-18T11:57:00.854Z,3.63
2019-05-18T12:02:03.686Z,4.20
2019-05-18T12:07:06.513Z,4.37
2019-05-18T12:12:09.301Z,6.90
2019-05-18T12:17:12.035Z,5.20
2019-05-18T12:22:14.757Z,5.67
2019-05-18T12:27:17.456Z,7.60
2019-05-18T12:32:20.179Z,7.93
2019-05-18T12:37:22.876Z,6.70
2019-05-18T12:42:25.643Z,4.80
2019-05-18T12:47:30.462Z,3.47
2019-05-18T12:52:35.870Z,4.77
2019-05-18T12:57:38.816Z,4.50
2019-05-18T13:02:41.597Z,3.97
2019-05-18T13:07:44.312Z,4.73
2019-05-18T13:12:47.008Z,3.53
2019-05-18T13:17:49.779Z,3.97
2019-05-18T13:22:54.042Z,4.90
2019-05-18T13:27:56.742Z,7.60
2019-05-18T13:32:59.445Z,6.07
2019-05-18T13:38:02.203Z,4.13
2019-05-18T13:43:05.135Z,4.67
2019-05-18T13:48:07.885Z,4.80
2019-05-18T13:53:10.612Z,4.03
2019-05-18T13:58:13.298Z,4.57
2019-05-18T14:03:16.010Z,4.40
2019-05-18T14:08:18.724Z,4.50
2019-05-18T14:13:21.495Z,4.17
2019-05-18T14:18:24.301Z,4.77
2019-05-18T14:23:27.056Z,4.30
2019-05-18T14:28:29.757Z,18.07
2019-05-18T14:33:32.534Z,3.70
2019-05-18T14:38:35.236Z,4.00
2019-05-18T14:43:37.967Z,3.37
2019-05-18T14:48:40.749Z,2.70
2019-05-18T14:53:43.512Z,4.83
2019-05-18T14:58:46.203Z,3.00
2019-05-18T15:03:48.904Z,2.63
2019-05-18T15:08:51.624Z,2.20
2019-05-18T15:13:54.334Z,3.00
2019-05-18T15:18:57.056Z,2.80
2019-05-18T15:23:59.761Z,3.50
2019-05-18T15:29:02.473Z,3.10
2019-05-18T15:34:05.200Z,4.33
2019-05-18T15:39:07.942Z,3.40
2019-05-18T15:44:10.660Z,2.53
2019-05-18T15:49:13.442Z,2.80
2019-05-18T15:54:16.222Z,2.60
2019-05-18T15:59:18.939Z,2.50
2019-05-18T16:04:21.664Z,4.10
2019-05-18T16:09:24.363Z,2.93
2019-05-18T16:14:27.090Z,3.23
2019-05-18T16:19:29.908Z,3.47
2019-05-18T16:24:32.781Z,3.20
2019-05-18T16:29:35.511Z,3.73
2019-05-18T16:34:38.245Z,4.97
2019-05-18T16:39:41.128Z,3.20
2019-05-18T16:44:43.871Z,3.13
2019-05-18T16:49:46.619Z,5.53
2019-05-18T16:54:49.357Z,4.57
2019-05-18T16:59:52.095Z,4.60
2019-05-18T17:04:56.054Z,5.17
2019-05-18T17:09:58.780Z,5.17
2019-05-18T17:15:01.505Z,4.30
2019-05-18T17:20:05.932Z,4.47
2019-05-18T17:25:08.831Z,4.83
2019-05-18T17:30:11.660Z,6.57
2019-05-18T17:35:14.484Z,5.10
2019-05-18T17:40:17.329Z,10.50
2019-05-18T17:45:20.145Z,4.03
2019-05-18T17:50:23.037Z,6.47
2019-05-18T17:55:25.773Z,4.67
2019-05-18T18:00:28.560Z,4.63
2019-05-18T18:05:31.337Z,4.87
2019-05-18T18:10:34.068Z,5.03
2019-05-18T18:15:36.763Z,7.00
2019-05-18T18:20:39.618Z,4.50
2019-05-18T18:25:42.322Z,5.13
2019-05-18T18:30:45.051Z,4.57
2019-05-18T18:35:47.933Z,4.50
2019-05-18T18:40:50.682Z,6.07
2019-05-18T18:46:04.275Z,4.13
2019-05-18T18:51:07.670Z,3.83
2019-05-18T18:56:10.419Z,4.60
2019-05-18T19:01:13.210Z,4.77
2019-05-18T19:06:16.423Z,4.30
2019-05-18T19:11:35.601Z,4.60
2019-05-18T19:16:42.331Z,6.03
2019-05-18T19:21:49.090Z,4.10
2019-05-18T19:26:52.156Z,6.00
2019-05-18T19:31:54.918Z,4.83
2019-05-18T19:36:57.663Z,5.30
2019-05-18T19:42:00.803Z,5.67
2019-05-18T19:47:03.530Z,7.57
2019-05-18T19:52:06.403Z,4.83
2019-05-18T19:57:09.141Z,4.70
2019-05-18T20:02:12.022Z,4.60
2019-05-18T20:07:14.749Z,12.23
2019-05-18T20:12:17.819Z,5.13
2019-05-18T20:17:20.509Z,5.00
2019-05-18T20:22:23.213Z,5.50
2019-05-18T20:27:25.909Z,4.47
2019-05-18T20:32:30.727Z,7.93
2019-05-18T20:37:34.175Z,6.27
2019-05-18T20:42:37.792Z,7.40
2019-05-18T20:47:40.785Z,8.43
2019-05-18T20:52:43.505Z,7.90
2019-05-18T20:57:46.210Z,5.47
2019-05-18T21:02:50.337Z,14.50
2019-05-18T21:07:53.137Z,9.30
2019-05-18T21:12:55.923Z,7.40
2019-05-18T21:17:58.650Z,13.73
2019-05-18T21:23:01.350Z,23.47
2019-05-18T21:28:04.053Z,9.67
2019-05-18T21:33:06.767Z,14.80
2019-05-18T21:38:09.478Z,7.90
2019-05-18T21:43:12.196Z,12.03
2019-05-18T21:48:14.933Z,14.30
2019-05-18T21:53:17.631Z,11.73
2019-05-18T21:58:20.410Z,9.40
2019-05-18T22:03:23.179Z,8.80
2019-05-18T22:08:25.938Z,10.63
2019-05-18T22:13:28.675Z,11.47
2019-05-18T22:18:31.437Z,9.70
2019-05-18T22:23:34.261Z,10.10
2019-05-18T22:28:36.980Z,10.30
2019-05-18T22:33:39.736Z,11.30
2019-05-18T22:38:42.438Z,11.97
2019-05-18T22:43:45.163Z,18.10
2019-05-18T22:48:47.868Z,11.90
2019-05-18T22:53:50.575Z,12.03
2019-05-18T22:58:53.310Z,13.73
2019-05-18T23:03:56.019Z,10.60
2019-05-18T23:08:58.736Z,13.40
2019-05-18T23:14:01.508Z,12.50
2019-05-18T23:19:04.263Z,11.60
2019-05-18T23:24:07.017Z,13.77
2019-05-18T23:29:09.726Z,11.33
2019-05-18T23:34:12.473Z,13.13
2019-05-18T23:39:15.293Z,12.20
2019-05-18T23:44:18.047Z,10.40
2019-05-18T23:49:20.754Z,11.33
2019-05-18T23:54:23.452Z,14.27
2019-05-18T23:59:26.168Z,12.70
